createdAt,value
2019-02-23T00:02:24.937Z,95.60
2019-02-23T00:05:04.432Z,95.80
2019-02-23T00:07:45.888Z,95.90
2019-02-23T00:10:21.939Z,95.60
2019-02-23T00:12:55.641Z,95.70
2019-02-23T00:15:34.869Z,95.70
2019-02-23T00:18:12.813Z,95.50
2019-02-23T00:20:47.913Z,95.40
2019-02-23T00:23:24.624Z,95.40
2019-02-23T00:25:54.932Z,95.40
2019-02-23T00:28:27.556Z,95.90
2019-02-23T00:34:08.853Z,95.50
2019-02-23T00:36:51.968Z,95.30
2019-02-23T00:39:28.778Z,95.40
2019-02-23T00:42:05.646Z,95.40
2019-02-23T00:44:36.819Z,95.30
2019-02-23T00:47:09.764Z,95.40
2019-02-23T00:49:37.943Z,95.40
2019-02-23T00:52:18.316Z,95.40
2019-02-23T00:55:10.204Z,95.30
2019-02-23T00:57:45.471Z,95.60
2019-02-23T01:03:04.548Z,95.80
2019-02-23T01:05:42.726Z,95.70
2019-02-23T01:08:21.647Z,95.70
2019-02-23T01:10:57.729Z,95.60
2019-02-23T01:13:19.526Z,95.60
2019-02-23T01:15:48.411Z,95.80
2019-02-23T01:18:17.157Z,95.70
2019-02-23T01:20:45.506Z,95.70
2019-02-23T01:23:13.874Z,95.70
2019-02-23T01:25:44.180Z,95.70
2019-02-23T01:28:30.969Z,95.70
2019-02-23T01:31:09.542Z,95.90
2019-02-23T01:34:18.885Z,95.90
2019-02-23T01:36:57.645Z,95.80
2019-02-23T01:39:30.794Z,95.70
2019-02-23T01:42:02.164Z,95.60
2019-02-23T01:44:30.243Z,95.60
2019-02-23T01:47:08.703Z,95.30
2019-02-23T01:49:59.008Z,95.20
2019-02-23T01:52:23.069Z,95.00
2019-02-23T01:54:52.197Z,94.90
2019-02-23T01:57:21.296Z,94.90
2019-02-23T01:59:50.888Z,94.90
2019-02-23T02:02:21.221Z,94.90
2019-02-23T02:05:01.806Z,94.90
2019-02-23T02:07:30.212Z,94.90
2019-02-23T02:09:58.914Z,94.80
2019-02-23T02:12:37.285Z,94.80
2019-02-23T02:15:13.703Z,94.70
2019-02-23T02:17:48.822Z,94.70
2019-02-23T02:20:18.236Z,94.80
2019-02-23T02:22:54.736Z,94.90
2019-02-23T02:25:26.487Z,95.10
2019-02-23T02:27:56.234Z,95.60
2019-02-23T02:30:26.476Z,95.60
2019-02-23T02:32:55.178Z,95.60
2019-02-23T02:35:25.840Z,95.50
2019-02-23T02:37:53.928Z,95.60
2019-02-23T02:40:25.287Z,95.50
2019-02-23T02:42:53.254Z,95.40
2019-02-23T02:45:21.078Z,95.60
2019-02-23T02:47:49.122Z,95.60
2019-02-23T02:50:24.281Z,95.60
2019-02-23T02:52:46.933Z,95.60
2019-02-23T02:55:15.248Z,96.00
2019-02-23T02:57:43.064Z,96.30
2019-02-23T03:00:12.889Z,96.50
2019-02-23T03:02:41.454Z,96.70
2019-02-23T03:05:09.985Z,96.70
2019-02-23T03:07:40.907Z,96.40
2019-02-23T03:10:09.309Z,96.40
2019-02-23T03:12:44.928Z,96.20
2019-02-23T03:15:12.904Z,96.10
2019-02-23T03:17:44.039Z,96.10
2019-02-23T03:20:12.100Z,96.00
2019-02-23T03:22:49.521Z,95.90
2019-02-23T03:25:18.317Z,96.20
2019-02-23T03:27:51.140Z,96.20
2019-02-23T03:30:19.624Z,96.30
2019-02-23T03:32:48.063Z,96.00
2019-02-23T03:35:16.304Z,95.80
2019-02-23T03:37:44.774Z,95.60
2019-02-23T03:40:14.694Z,95.60
2019-02-23T03:42:50.742Z,95.40
2019-02-23T03:45:22.112Z,95.20
2019-02-23T03:47:50.284Z,95.20
2019-02-23T03:50:18.628Z,95.20
2019-02-23T03:52:49.532Z,95.40
2019-02-23T03:55:17.689Z,95.30
2019-02-23T03:57:54.069Z,95.40
2019-02-23T04:00:25.840Z,95.20
2019-02-23T04:02:58.520Z,95.10
2019-02-23T04:05:30.234Z,95.10
2019-02-23T04:08:01.946Z,95.20
2019-02-23T04:10:30.019Z,95.30
2019-02-23T04:13:00.367Z,95.40
2019-02-23T04:15:36.123Z,95.50
2019-02-23T04:18:09.937Z,95.50
2019-02-23T04:20:38.384Z,95.60
2019-02-23T04:23:08.721Z,95.80
2019-02-23T04:25:39.366Z,95.80
2019-02-23T04:28:08.178Z,95.80
2019-02-23T04:30:39.883Z,95.90
2019-02-23T04:33:32.964Z,95.90
2019-02-23T04:36:05.733Z,95.90
2019-02-23T04:38:36.485Z,95.70
2019-02-23T04:41:04.931Z,95.60
2019-02-23T04:43:37.566Z,95.70
2019-02-23T04:46:10.400Z,95.90
2019-02-23T04:48:45.390Z,95.70
2019-02-23T04:51:15.793Z,95.70
2019-02-23T04:53:44.610Z,95.60
2019-02-23T04:56:21.894Z,95.30
2019-02-23T04:58:54.180Z,95.10
2019-02-23T05:01:23.556Z,95.10
2019-02-23T05:03:56.726Z,95.30
2019-02-23T05:06:30.997Z,95.20
2019-02-23T05:09:09.436Z,94.90
2019-02-23T05:11:38.082Z,95.10
2019-02-23T05:14:21.978Z,95.20
2019-02-23T05:16:52.383Z,95.10
2019-02-23T05:19:22.973Z,95.10
2019-02-23T05:22:02.980Z,94.80
2019-02-23T05:24:31.140Z,94.80
2019-02-23T05:27:00.505Z,94.70
2019-02-23T05:29:31.179Z,94.70
2019-02-23T05:32:00.452Z,94.80
2019-02-23T05:34:29.389Z,95.00
2019-02-23T05:36:57.236Z,95.10
2019-02-23T05:39:26.565Z,95.00
2019-02-23T05:41:54.700Z,94.90
2019-02-23T05:44:22.737Z,94.60
2019-02-23T05:46:53.920Z,94.80
2019-02-23T05:49:22.244Z,94.60
2019-02-23T05:51:53.428Z,94.60
2019-02-23T05:54:29.917Z,94.50
2019-02-23T05:57:02.420Z,94.40
2019-02-23T05:59:28.509Z,94.40
2019-02-23T06:01:56.790Z,94.40
2019-02-23T06:04:29.996Z,94.60
2019-02-23T06:06:58.505Z,94.40
2019-02-23T06:09:27.229Z,94.20
2019-02-23T06:11:59.102Z,94.20
2019-02-23T06:14:32.840Z,94.30
2019-02-23T06:17:18.888Z,94.20
2019-02-23T06:20:04.475Z,94.40
2019-02-23T06:22:32.498Z,94.10
2019-02-23T06:25:19.478Z,94.10
2019-02-23T06:27:47.414Z,94.00
2019-02-23T06:30:39.360Z,93.90
2019-02-23T06:33:05.286Z,94.10
2019-02-23T06:35:44.774Z,94.30
2019-02-23T06:38:16.197Z,94.30
2019-02-23T06:41:04.005Z,94.20
2019-02-23T06:43:32.215Z,94.20
2019-02-23T06:46:19.832Z,94.30
2019-02-23T06:48:54.671Z,94.10
2019-02-23T06:51:33.958Z,94.00
2019-02-23T06:54:02.033Z,94.10
2019-02-23T06:56:30.067Z,94.10
2019-02-23T06:59:05.711Z,93.70
2019-02-23T07:01:34.914Z,93.70
2019-02-23T07:04:04.239Z,93.80
2019-02-23T07:06:41.045Z,94.00
2019-02-23T07:09:09.135Z,94.90
2019-02-23T07:11:37.057Z,94.30
2019-02-23T07:14:08.072Z,93.10
2019-02-23T07:16:35.620Z,93.10
2019-02-23T07:19:05.999Z,92.90
2019-02-23T07:21:37.476Z,92.90
2019-02-23T07:24:05.521Z,92.90
2019-02-23T07:26:33.194Z,92.80
2019-02-23T07:29:01.611Z,92.90
2019-02-23T07:31:29.498Z,92.80
2019-02-23T07:34:00.140Z,92.60
2019-02-23T07:36:27.944Z,92.50
2019-02-23T07:38:55.689Z,92.70
2019-02-23T07:41:23.684Z,93.40
2019-02-23T07:43:51.578Z,93.10
2019-02-23T07:46:19.594Z,93.10
2019-02-23T07:48:47.522Z,92.60
2019-02-23T07:51:16.861Z,92.50
2019-02-23T07:53:44.775Z,92.40
2019-02-23T07:56:15.027Z,92.30
2019-02-23T07:58:44.811Z,92.20
2019-02-23T08:01:12.295Z,92.00
2019-02-23T08:08:21.902Z,91.70
2019-02-23T08:31:46.352Z,90.30
2019-02-23T08:37:45.812Z,88.60
2019-02-23T08:42:48.805Z,88.90
2019-02-23T08:46:18.349Z,87.70
2019-02-23T08:48:45.876Z,87.60
2019-02-23T08:51:40.170Z,85.10
2019-02-23T08:54:08.500Z,85.50
2019-02-23T08:56:57.462Z,85.20
2019-02-23T08:59:41.144Z,84.80
2019-02-23T09:02:34.269Z,83.50
2019-02-23T09:05:06.203Z,83.80
2019-02-23T09:07:46.043Z,83.50
2019-02-23T09:10:14.478Z,82.90
2019-02-23T09:12:42.661Z,82.50
2019-02-23T09:15:10.608Z,81.20
2019-02-23T09:17:39.651Z,81.40
2019-02-23T09:20:09.807Z,79.40
2019-02-23T09:22:37.689Z,81.10
2019-02-23T09:25:06.084Z,79.20
2019-02-23T09:27:38.118Z,78.70
2019-02-23T09:30:11.242Z,78.70
2019-02-23T09:32:39.481Z,78.80
2019-02-23T09:35:07.052Z,76.30
2019-02-23T09:37:40.543Z,75.20
2019-02-23T09:40:09.048Z,75.50
2019-02-23T09:42:36.959Z,74.70
2019-02-23T09:45:05.196Z,75.20
2019-02-23T09:47:32.990Z,74.40
2019-02-23T09:50:00.440Z,73.80
2019-02-23T09:52:27.952Z,73.60
2019-02-23T09:55:01.703Z,74.30
2019-02-23T09:57:29.243Z,73.00
2019-02-23T09:59:56.741Z,71.10
2019-02-23T10:02:24.204Z,70.00
2019-02-23T10:04:52.012Z,70.00
2019-02-23T10:07:19.487Z,69.70
2019-02-23T10:09:47.231Z,68.80
2019-02-23T10:12:14.768Z,68.00
2019-02-23T10:14:42.255Z,65.60
2019-02-23T10:17:09.749Z,65.40
2019-02-23T10:19:37.199Z,65.60
2019-02-23T10:22:04.688Z,65.60
2019-02-23T10:24:33.471Z,64.20
2019-02-23T10:27:00.984Z,63.70
2019-02-23T10:29:28.451Z,63.50
2019-02-23T10:31:55.964Z,63.30
2019-02-23T10:34:23.709Z,63.00
2019-02-23T10:36:51.817Z,61.60
2019-02-23T10:39:19.579Z,62.00
2019-02-23T10:41:47.060Z,63.30
2019-02-23T10:44:14.515Z,59.40
2019-02-23T10:46:49.075Z,58.50
2019-02-23T10:49:16.539Z,58.90
2019-02-23T10:51:43.999Z,58.10
2019-02-23T10:54:14.000Z,57.50
2019-02-23T10:56:41.488Z,58.50
2019-02-23T10:59:09.056Z,54.90
2019-02-23T11:01:36.526Z,53.00
2019-02-23T11:04:04.016Z,52.00
2019-02-23T11:06:31.443Z,51.20
2019-02-23T11:08:58.925Z,49.90
2019-02-23T11:11:26.395Z,49.80
2019-02-23T11:13:53.901Z,49.20
2019-02-23T11:16:21.347Z,49.60
2019-02-23T11:18:48.841Z,47.90
2019-02-23T11:21:16.325Z,48.10
2019-02-23T11:23:44.655Z,47.20
2019-02-23T11:26:12.276Z,46.60
2019-02-23T11:28:39.776Z,44.10
2019-02-23T11:31:07.228Z,43.00
2019-02-23T11:33:34.710Z,42.20
2019-02-23T11:36:02.161Z,41.90
2019-02-23T11:38:29.643Z,42.10
2019-02-23T11:40:57.314Z,41.80
2019-02-23T11:43:25.056Z,42.10
2019-02-23T11:45:52.788Z,41.10
2019-02-23T11:48:20.271Z,41.60
2019-02-23T11:50:48.227Z,41.30
2019-02-23T11:53:16.058Z,39.10
2019-02-23T11:55:43.578Z,38.60
2019-02-23T11:58:11.051Z,38.60
2019-02-23T12:00:44.587Z,38.00
2019-02-23T12:03:12.465Z,38.40
2019-02-23T12:05:39.897Z,38.60
2019-02-23T12:08:07.376Z,37.80
2019-02-23T12:10:34.838Z,36.40
2019-02-23T12:13:02.540Z,36.50
2019-02-23T12:15:30.302Z,37.10
2019-02-23T12:17:57.891Z,37.50
2019-02-23T12:20:25.355Z,36.70
2019-02-23T12:22:52.848Z,35.70
2019-02-23T12:25:20.307Z,36.30
2019-02-23T12:27:47.918Z,35.00
2019-02-23T12:30:15.561Z,34.90
2019-02-23T12:32:43.087Z,34.80
2019-02-23T12:35:11.484Z,35.70
2019-02-23T12:37:41.040Z,35.60
2019-02-23T12:40:09.515Z,35.90
2019-02-23T12:42:37.311Z,34.50
2019-02-23T12:45:05.115Z,34.60
2019-02-23T12:47:33.073Z,33.90
2019-02-23T12:50:00.573Z,34.00
2019-02-23T12:52:28.020Z,34.20
2019-02-23T12:54:55.521Z,34.30
2019-02-23T12:57:22.992Z,34.70
2019-02-23T12:59:50.471Z,34.90
2019-02-23T13:02:21.040Z,35.00
2019-02-23T13:04:49.767Z,34.50
2019-02-23T13:07:17.268Z,33.50
2019-02-23T13:09:52.817Z,33.80
2019-02-23T13:13:08.595Z,34.50
2019-02-23T13:15:56.277Z,35.10
2019-02-23T13:18:46.393Z,34.40
2019-02-23T13:21:36.965Z,35.10
2019-02-23T13:24:28.439Z,33.30
2019-02-23T13:27:36.749Z,33.20
2019-02-23T13:30:31.737Z,34.20
2019-02-23T13:33:46.584Z,34.70
2019-02-23T13:36:47.047Z,34.80
2019-02-23T13:39:51.953Z,33.80
2019-02-23T13:43:01.563Z,34.20
2019-02-23T13:46:12.531Z,33.40
2019-02-23T13:49:26.620Z,32.70
2019-02-23T13:52:51.229Z,31.90
2019-02-23T13:56:02.483Z,32.30
2019-02-23T13:59:18.582Z,32.10
2019-02-23T14:02:22.193Z,32.60
2019-02-23T14:05:45.883Z,31.70
2019-02-23T14:08:43.726Z,31.50
2019-02-23T14:11:44.536Z,31.50
2019-02-23T14:14:43.459Z,31.70
2019-02-23T14:17:59.317Z,31.20
2019-02-23T14:21:09.261Z,30.20
2019-02-23T14:24:14.898Z,30.40
2019-02-23T14:27:18.029Z,30.50
2019-02-23T14:30:42.563Z,29.50
2019-02-23T14:33:55.352Z,29.80
2019-02-23T14:36:46.310Z,29.70
2019-02-23T14:39:49.813Z,30.00
2019-02-23T14:43:01.198Z,30.00
2019-02-23T14:46:09.072Z,29.80
2019-02-23T14:49:09.801Z,29.60
2019-02-23T14:52:11.267Z,28.60
2019-02-23T14:55:28.435Z,28.80
2019-02-23T14:58:52.127Z,29.10
2019-02-23T15:02:03.661Z,28.70
2019-02-23T15:04:57.612Z,28.90
2019-02-23T15:08:22.411Z,28.70
2019-02-23T15:11:26.900Z,28.40
2019-02-23T15:14:31.169Z,28.90
2019-02-23T15:17:37.209Z,28.40
2019-02-23T15:20:37.781Z,28.60
2019-02-23T15:23:15.704Z,29.00
2019-02-23T15:26:21.836Z,28.70
2019-02-23T15:29:24.493Z,28.60
2019-02-23T15:32:12.197Z,28.70
2019-02-23T15:35:17.097Z,28.80
2019-02-23T15:38:45.474Z,29.10
2019-02-23T15:41:41.050Z,29.00
2019-02-23T15:44:41.205Z,29.60
2019-02-23T15:47:49.169Z,29.00
2019-02-23T15:50:17.520Z,29.60
2019-02-23T15:52:45.937Z,29.60
2019-02-23T15:55:25.332Z,29.50
2019-02-23T15:57:43.144Z,29.80
2019-02-23T16:00:11.066Z,29.50
2019-02-23T16:02:38.644Z,29.70
2019-02-23T16:05:06.833Z,29.90
2019-02-23T16:07:34.414Z,30.10
2019-02-23T16:10:02.436Z,30.20
2019-02-23T16:12:30.030Z,30.50
2019-02-23T16:14:57.606Z,30.70
2019-02-23T16:17:25.255Z,30.40
2019-02-23T16:19:52.841Z,30.50
2019-02-23T16:22:20.779Z,30.90
2019-02-23T16:24:50.710Z,31.00
2019-02-23T16:27:21.388Z,31.00
2019-02-23T16:29:49.171Z,30.70
2019-02-23T16:32:22.665Z,30.50
2019-02-23T16:34:52.257Z,31.00
2019-02-23T16:37:20.408Z,31.10
2019-02-23T16:40:04.132Z,30.80
2019-02-23T16:42:34.552Z,30.80
2019-02-23T16:45:04.910Z,30.60
2019-02-23T16:47:32.680Z,30.00
2019-02-23T16:50:00.595Z,29.60
2019-02-23T16:52:28.344Z,29.10
2019-02-23T16:55:00.144Z,29.50
2019-02-23T16:57:36.251Z,28.90
2019-02-23T17:00:05.172Z,28.80
2019-02-23T17:02:35.858Z,28.50
2019-02-23T17:05:02.525Z,29.00
2019-02-23T17:07:30.162Z,29.00
2019-02-23T17:10:02.786Z,29.30
2019-02-23T17:12:31.473Z,29.90
2019-02-23T17:14:59.223Z,29.70
2019-02-23T17:17:26.822Z,29.70
2019-02-23T17:19:56.657Z,29.70
2019-02-23T17:22:39.076Z,30.00
2019-02-23T17:25:07.313Z,30.20
2019-02-23T17:27:36.683Z,30.80
2019-02-23T17:30:05.234Z,30.40
2019-02-23T17:32:37.191Z,30.40
2019-02-23T17:35:09.767Z,30.80
2019-02-23T17:44:53.787Z,32.30
2019-02-23T17:47:21.820Z,32.70
2019-02-23T17:50:05.300Z,33.40
2019-02-23T17:52:44.765Z,32.60
2019-02-23T17:55:39.480Z,33.10
2019-02-23T17:58:10.750Z,33.30
2019-02-23T18:00:58.809Z,33.60
2019-02-23T18:03:30.095Z,34.20
2019-02-23T18:06:03.458Z,33.90
2019-02-23T18:08:35.659Z,34.40
2019-02-23T18:11:20.409Z,34.40
2019-02-23T18:13:49.096Z,34.70
2019-02-23T18:16:17.259Z,35.20
2019-02-23T18:18:45.106Z,35.80
2019-02-23T18:21:14.049Z,35.70
2019-02-23T18:23:42.210Z,36.40
2019-02-23T18:26:09.990Z,37.10
2019-02-23T18:28:38.096Z,36.90
2019-02-23T18:31:08.036Z,37.10
2019-02-23T18:33:36.828Z,37.10
2019-02-23T18:36:11.020Z,37.10
2019-02-23T18:38:40.009Z,37.30
2019-02-23T18:41:08.776Z,36.90
2019-02-23T18:43:38.018Z,36.70
2019-02-23T18:46:07.337Z,36.70
2019-02-23T18:48:38.969Z,36.70
2019-02-23T18:51:29.136Z,36.60
2019-02-23T18:53:59.538Z,37.40
2019-02-23T18:56:40.543Z,37.30
2019-02-23T19:13:43.335Z,38.10
2019-02-23T19:16:11.284Z,38.20
2019-02-23T19:18:39.421Z,38.50
2019-02-23T19:21:15.382Z,38.70
2019-02-23T19:23:46.834Z,38.80
2019-02-23T19:26:38.083Z,38.70
2019-02-23T19:29:22.069Z,38.70
2019-02-23T19:32:38.220Z,38.70
2019-02-23T19:38:45.955Z,38.90
2019-02-23T19:47:42.724Z,39.30
2019-02-23T19:54:54.262Z,39.20
2019-02-23T20:02:20.974Z,39.30
2019-02-23T20:08:29.543Z,39.50
2019-02-23T20:11:05.265Z,39.50
2019-02-23T20:13:36.439Z,39.60
2019-02-23T20:16:05.142Z,39.20
2019-02-23T20:21:22.846Z,39.80
2019-02-23T20:23:52.127Z,40.20
2019-02-23T20:26:21.840Z,39.70
2019-02-23T20:28:50.686Z,39.70
2019-02-23T20:31:23.812Z,39.80
2019-02-23T20:33:52.085Z,40.50
2019-02-23T20:36:22.303Z,39.50
2019-02-23T20:38:57.588Z,39.30
2019-02-23T20:41:29.800Z,39.30
2019-02-23T20:44:18.557Z,38.60
2019-02-23T20:46:49.111Z,38.50
2019-02-23T20:49:17.066Z,38.80
2019-02-23T20:51:51.076Z,38.70
2019-02-23T20:54:23.180Z,38.50
2019-02-23T20:57:05.142Z,38.40
2019-02-23T20:59:34.784Z,37.20
2019-02-23T21:02:02.911Z,37.20
2019-02-23T21:04:31.213Z,36.60
2019-02-23T21:07:01.879Z,37.30
2019-02-23T21:09:32.630Z,36.80
2019-02-23T21:12:01.631Z,37.30
2019-02-23T21:14:35.330Z,37.20
2019-02-23T21:17:08.714Z,37.00
2019-02-23T21:19:44.627Z,36.80
2019-02-23T21:22:17.147Z,36.90
2019-02-23T21:24:45.457Z,36.80
2019-02-23T21:27:17.093Z,37.50
2019-02-23T21:29:54.836Z,37.30
2019-02-23T21:32:35.234Z,36.60
2019-02-23T21:35:13.055Z,36.40
2019-02-23T21:37:46.489Z,36.60
2019-02-23T21:40:14.828Z,36.50
2019-02-23T21:42:43.279Z,36.20
2019-02-23T21:45:15.342Z,36.60
2019-02-23T21:47:48.449Z,36.70
2019-02-23T21:50:16.004Z,36.90
2019-02-23T21:53:16.667Z,37.10
2019-02-23T21:55:45.104Z,37.00
2019-02-23T21:58:15.143Z,36.50
2019-02-23T22:00:42.850Z,36.30
2019-02-23T22:03:10.675Z,36.10
2019-02-23T22:05:43.190Z,35.80
2019-02-23T22:08:10.992Z,35.90
2019-02-23T22:10:38.716Z,35.90
2019-02-23T22:13:06.438Z,35.90
2019-02-23T22:15:35.233Z,36.70
2019-02-23T22:18:03.322Z,36.20
2019-02-23T22:20:30.977Z,35.70
2019-02-23T22:22:58.788Z,35.70
2019-02-23T22:25:26.538Z,35.60
2019-02-23T22:27:54.517Z,35.50
2019-02-23T22:30:22.181Z,35.20
2019-02-23T22:32:50.058Z,34.60
2019-02-23T22:35:18.206Z,34.00
2019-02-23T22:37:45.724Z,34.30
2019-02-23T22:40:13.832Z,33.90
2019-02-23T22:42:41.604Z,34.20
2019-02-23T22:45:09.426Z,34.30
2019-02-23T22:47:37.065Z,34.30
2019-02-23T22:50:04.746Z,34.70
2019-02-23T22:52:32.317Z,34.60
2019-02-23T22:55:00.266Z,34.30
2019-02-23T22:57:27.940Z,34.00
2019-02-23T22:59:55.693Z,34.60
2019-02-23T23:02:23.966Z,34.20
2019-02-23T23:04:51.604Z,33.90
2019-02-23T23:07:19.131Z,33.30
2019-02-23T23:09:46.783Z,33.40
2019-02-23T23:12:14.601Z,33.60
2019-02-23T23:14:42.165Z,33.90
2019-02-23T23:17:10.447Z,33.80
2019-02-23T23:19:38.297Z,33.90
2019-02-23T23:22:06.174Z,34.20
2019-02-23T23:24:33.983Z,34.50
2019-02-23T23:27:02.111Z,33.40
2019-02-23T23:29:30.036Z,33.20
2019-02-23T23:31:58.021Z,32.40
2019-02-23T23:34:25.858Z,31.70
2019-02-23T23:36:53.530Z,32.00
2019-02-23T23:39:21.856Z,32.10
2019-02-23T23:41:49.699Z,31.70
2019-02-23T23:44:17.624Z,31.80
2019-02-23T23:46:45.432Z,31.90
2019-02-23T23:49:13.248Z,32.30
2019-02-23T23:51:41.008Z,33.10
2019-02-23T23:54:08.864Z,34.00
2019-02-23T23:56:36.517Z,34.10
2019-02-23T23:59:04.157Z,34.70
